Time,TemperatureF,DewpointF,PressureIn,WindDirection,WindDirectionDegrees,WindSpeedMPH,WindSpeedGustMPH,Humidity,HourlyPrecipIn,Conditions,Clouds,dailyrainin,SolarRadiationWatts/m^2,SoftwareType,DateUTC
2013-09-06 00:03:00,79.8,76.0,30.02,SSE,155,0.0,0.0,88,0.00,,,0.00,0,weatherlink.com 1.10,2013-09-06 04:03:00,
2013-09-06 00:18:00,79.3,76.0,30.03,SSE,155,0.0,0.0,89,0.00,,,0.00,0,weatherlink.com 1.10,2013-09-06 04:18:00,
2013-09-06 00:33:00,79.0,76.0,30.03,SSE,155,0.0,0.0,89,0.00,,,0.00,0,weatherlink.com 1.10,2013-09-06 04:33:00,
2013-09-06 00:48:00,78.7,76.0,30.03,SSE,155,0.0,0.0,90,0.00,,,0.00,0,weatherlink.com 1.10,2013-09-06 04:48:00,
2013-09-06 01:03:00,78.5,75.0,30.02,SSE,155,0.0,0.0,90,0.00,,,0.00,0,weatherlink.com 1.10,2013-09-06 05:03:00,
2013-09-06 01:18:00,78.4,75.0,30.02,SSE,155,0.0,0.0,90,0.00,,,0.00,0,weatherlink.com 1.10,2013-09-06 05:18:00,
2013-09-06 01:33:00,78.2,75.0,30.02,SSE,155,0.0,0.0,91,0.00,,,0.00,0,weatherlink.com 1.10,2013-09-06 05:33:00,
2013-09-06 01:48:00,78.1,75.0,30.01,SSE,155,0.0,0.0,91,0.00,,,0.00,0,weatherlink.com 1.10,2013-09-06 05:48:00,
2013-09-06 02:03:00,77.8,75.0,30.01,SSE,155,0.0,0.0,91,0.00,,,0.00,0,weatherlink.com 1.10,2013-09-06 06:03:00,
2013-09-06 02:18:00,77.8,75.0,30.00,SSE,155,0.0,0.0,92,0.00,,,0.00,0,weatherlink.com 1.10,2013-09-06 06:18:00,
2013-09-06 02:33:00,77.7,75.0,30.00,SSE,155,0.0,0.0,92,0.00,,,0.00,0,weatherlink.com 1.10,2013-09-06 06:33:00,
2013-09-06 02:48:00,77.6,75.0,30.00,SSE,155,0.0,0.0,92,0.00,,,0.00,0,weatherlink.com 1.10,2013-09-06 06:48:00,
2013-09-06 03:03:00,77.5,75.0,30.00,SSE,155,0.0,0.0,92,0.00,,,0.00,0,weatherlink.com 1.10,2013-09-06 07:03:00,
2013-09-06 03:18:00,77.3,75.0,30.00,SSE,155,0.0,0.0,92,0.00,,,0.00,0,weatherlink.com 1.10,2013-09-06 07:18:00,
2013-09-06 03:33:00,77.1,75.0,30.00,SSE,155,0.0,0.0,93,0.00,,,0.00,0,weatherlink.com 1.10,2013-09-06 07:33:00,
2013-09-06 03:48:00,77.0,75.0,30.00,SSE,155,0.0,0.0,93,0.00,,,0.00,0,weatherlink.com 1.10,2013-09-06 07:48:00,
2013-09-06 04:03:00,77.0,75.0,30.00,SSE,155,0.0,0.0,93,0.00,,,0.00,0,weatherlink.com 1.10,2013-09-06 08:03:00,
2013-09-06 04:18:00,77.1,75.0,30.00,SSE,155,0.0,0.0,93,0.00,,,0.00,0,weatherlink.com 1.10,2013-09-06 08:18:00,
2013-09-06 04:33:00,77.1,75.0,30.00,SSE,155,0.0,0.0,93,0.00,,,0.00,0,weatherlink.com 1.10,2013-09-06 08:33:00,
2013-09-06 04:48:00,77.1,75.0,30.00,SSE,155,0.0,0.0,93,0.00,,,0.00,0,weatherlink.com 1.10,2013-09-06 08:48:00,
2013-09-06 05:03:00,77.0,75.0,30.00,SSE,155,0.0,0.0,93,0.00,,,0.00,0,weatherlink.com 1.10,2013-09-06 09:03:00,
2013-09-06 05:18:00,76.9,75.0,30.00,SSE,155,0.0,0.0,93,0.00,,,0.00,0,weatherlink.com 1.10,2013-09-06 09:18:00,
2013-09-06 05:33:00,76.8,75.0,30.00,SSE,155,0.0,0.0,94,0.00,,,0.00,0,weatherlink.com 1.10,2013-09-06 09:33:00,
2013-09-06 05:48:00,76.6,75.0,30.00,SSE,155,0.0,0.0,94,0.00,,,0.00,0,weatherlink.com 1.10,2013-09-06 09:48:00,
2013-09-06 06:03:00,76.6,75.0,30.01,SSE,155,0.0,0.0,94,0.00,,,0.00,0,weatherlink.com 1.10,2013-09-06 10:03:00,
2013-09-06 06:18:00,76.8,75.0,30.00,SSE,155,0.0,0.0,94,0.00,,,0.00,0,weatherlink.com 1.10,2013-09-06 10:18:00,
2013-09-06 06:33:00,76.8,75.0,30.01,SSE,155,0.0,0.0,94,0.00,,,0.00,0,weatherlink.com 1.10,2013-09-06 10:33:00,
2013-09-06 06:48:00,76.5,75.0,30.00,SSE,155,0.0,0.0,94,0.00,,,0.00,0,weatherlink.com 1.10,2013-09-06 10:48:00,
2013-09-06 07:03:00,76.4,75.0,30.00,SSE,155,0.0,0.0,94,0.00,,,0.00,0,weatherlink.com 1.10,2013-09-06 11:03:00,
2013-09-06 07:18:00,76.4,75.0,30.01,SSE,155,0.0,0.0,94,0.00,,,0.00,9,weatherlink.com 1.10,2013-09-06 11:18:00,
2013-09-06 07:33:00,76.7,75.0,30.01,SSE,155,0.0,1.0,94,0.00,,,0.00,18,weatherlink.com 1.10,2013-09-06 11:33:00,
2013-09-06 07:48:00,77.0,75.0,30.01,SSE,155,0.0,0.0,94,0.00,,,0.00,26,weatherlink.com 1.10,2013-09-06 11:48:00,
2013-09-06 08:04:00,77.3,76.0,30.02,SSE,155,0.0,0.0,95,0.00,,,0.00,121,weatherlink.com 1.10,2013-09-06 12:04:00,
2013-09-06 08:19:00,78.7,77.0,30.02,SSE,156,0.0,0.0,95,0.00,,,0.00,169,weatherlink.com 1.10,2013-09-06 12:19:00,
2013-09-06 08:34:00,79.8,78.0,30.02,SSE,155,1.0,1.0,95,0.00,,,0.00,218,weatherlink.com 1.10,2013-09-06 12:34:00,
2013-09-06 08:49:00,80.3,79.0,30.02,SSE,155,0.0,1.0,94,0.00,,,0.00,271,weatherlink.com 1.10,2013-09-06 12:49:00,
2013-09-06 09:04:00,81.4,79.0,30.03,SSE,155,0.0,1.0,92,0.00,,,0.00,346,weatherlink.com 1.10,2013-09-06 13:04:00,
2013-09-06 09:19:00,82.4,79.0,30.03,SSE,155,0.0,1.0,88,0.00,,,0.00,225,weatherlink.com 1.10,2013-09-06 13:19:00,
2013-09-06 09:34:00,83.1,78.0,30.03,SSE,155,0.0,1.0,84,0.00,,,0.00,457,weatherlink.com 1.10,2013-09-06 13:34:00,
2013-09-06 09:49:00,84.3,77.0,30.03,SSE,155,0.0,2.0,79,0.00,,,0.00,499,weatherlink.com 1.10,2013-09-06 13:49:00,
2013-09-06 10:04:00,85.3,77.0,30.03,SE,132,0.0,4.0,75,0.00,,,0.00,561,weatherlink.com 1.10,2013-09-06 14:04:00,
2013-09-06 10:19:00,85.8,76.0,30.03,SE,146,0.0,2.0,72,0.00,,,0.00,622,weatherlink.com 1.10,2013-09-06 14:19:00,
2013-09-06 10:34:00,86.2,76.0,30.03,SSE,163,0.0,4.0,72,0.00,,,0.00,638,weatherlink.com 1.10,2013-09-06 14:34:00,
2013-09-06 10:49:00,87.6,76.0,30.03,South,174,0.0,4.0,68,0.00,,,0.00,719,weatherlink.com 1.10,2013-09-06 14:49:00,
2013-09-06 11:04:00,87.9,76.0,30.03,WSW,241,0.0,4.0,68,0.00,,,0.00,752,weatherlink.com 1.10,2013-09-06 15:04:00,
2013-09-06 11:19:00,88.7,76.0,30.03,NNW,346,1.0,3.0,66,0.00,,,0.00,803,weatherlink.com 1.10,2013-09-06 15:19:00,
2013-09-06 11:34:00,87.3,76.0,30.03,NNW,340,0.0,1.0,68,0.00,,,0.00,812,weatherlink.com 1.10,2013-09-06 15:34:00,
2013-09-06 11:49:00,88.8,75.0,30.03,WNW,289,1.0,3.0,64,0.00,,,0.00,847,weatherlink.com 1.10,2013-09-06 15:49:00,
2013-09-06 12:04:00,89.3,75.0,30.02,NNW,345,0.0,4.0,63,0.00,,,0.00,874,weatherlink.com 1.10,2013-09-06 16:04:00,
2013-09-06 12:20:00,90.1,75.0,30.01,NW,311,0.0,1.0,62,0.00,,,0.00,926,weatherlink.com 1.10,2013-09-06 16:20:00,
2013-09-06 12:35:00,89.3,75.0,30.01,SSW,205,0.0,1.0,63,0.00,,,0.00,953,weatherlink.com 1.10,2013-09-06 16:35:00,
2013-09-06 12:50:00,90.4,75.0,30.00,WSW,240,0.0,5.0,60,0.00,,,0.00,926,weatherlink.com 1.10,2013-09-06 16:50:00,
2013-09-06 13:05:00,91.5,75.0,30.00,SSW,194,3.0,6.0,59,0.00,,,0.00,972,weatherlink.com 1.10,2013-09-06 17:05:00,
2013-09-06 13:20:00,91.9,74.0,29.99,SSW,202,0.0,3.0,57,0.00,,,0.00,991,weatherlink.com 1.10,2013-09-06 17:20:00,
2013-09-06 13:35:00,91.1,74.0,29.98,SSW,202,0.0,6.0,57,0.00,,,0.00,1002,weatherlink.com 1.10,2013-09-06 17:35:00,
2013-09-06 13:50:00,92.8,74.0,29.97,South,175,0.0,5.0,54,0.00,,,0.00,947,weatherlink.com 1.10,2013-09-06 17:50:00,
2013-09-06 14:05:00,93.2,72.0,29.97,SSE,161,0.0,6.0,50,0.00,,,0.00,1002,weatherlink.com 1.10,2013-09-06 18:05:00,
2013-09-06 14:20:00,92.7,72.0,29.96,SE,144,3.0,8.0,51,0.00,,,0.00,457,weatherlink.com 1.10,2013-09-06 18:20:00,
2013-09-06 14:35:00,92.7,72.0,29.95,East,94,0.0,3.0,51,0.00,,,0.00,322,weatherlink.com 1.10,2013-09-06 18:35:00,
2013-09-06 14:50:00,88.1,69.0,29.96,North,360,12.0,18.0,54,0.00,,,0.00,30,weatherlink.com 1.10,2013-09-06 18:50:00,
2013-09-06 15:05:00,79.0,69.0,29.96,West,272,0.0,26.0,72,0.00,,,0.00,12,weatherlink.com 1.10,2013-09-06 19:05:00,
2013-09-06 15:35:00,73.3,70.0,30.00,ENE,64,1.0,9.0,89,0.68,,,0.68,7,weatherlink.com 1.10,2013-09-06 19:35:00,
2013-09-06 15:50:00,72.6,70.0,29.99,East,92,1.0,3.0,91,0.93,,,0.93,7,weatherlink.com 1.10,2013-09-06 19:50:00,
2013-09-06 16:05:00,72.2,70.0,29.98,ESE,106,0.0,9.0,91,0.99,,,0.99,9,weatherlink.com 1.10,2013-09-06 20:05:00,
2013-09-06 16:20:00,71.4,69.0,29.97,SE,145,0.0,5.0,92,0.78,,,0.99,9,weatherlink.com 1.10,2013-09-06 20:20:00,
2013-09-06 16:35:00,71.8,70.0,29.97,SE,142,0.0,1.0,93,0.28,,,0.99,7,weatherlink.com 1.10,2013-09-06 20:35:00,
2013-09-06 16:50:00,72.4,70.0,29.97,SE,141,0.0,0.0,93,0.06,,,0.99,5,weatherlink.com 1.10,2013-09-06 20:50:00,
2013-09-06 17:05:00,72.8,71.0,30.00,SE,141,0.0,1.0,93,0.00,,,0.99,5,weatherlink.com 1.10,2013-09-06 21:05:00,
2013-09-06 17:20:00,73.0,71.0,29.99,SE,142,0.0,1.0,93,0.01,,,1.00,5,weatherlink.com 1.10,2013-09-06 21:20:00,
2013-09-06 17:35:00,73.2,71.0,29.99,SE,141,0.0,1.0,93,0.02,,,1.01,5,weatherlink.com 1.10,2013-09-06 21:35:00,
2013-09-06 17:50:00,73.4,72.0,29.98,SE,142,0.0,0.0,94,0.04,,,1.03,5,weatherlink.com 1.10,2013-09-06 21:50:00,
2013-09-06 18:06:00,73.5,72.0,29.98,SE,142,0.0,0.0,94,0.06,,,1.05,5,weatherlink.com 1.10,2013-09-06 22:06:00,
2013-09-06 18:20:00,73.8,72.0,29.99,SE,144,0.0,1.0,94,0.06,,,1.06,5,weatherlink.com 1.10,2013-09-06 22:20:00,
2013-09-06 18:36:00,74.1,72.0,29.97,SSW,202,0.0,1.0,94,0.08,,,1.09,5,weatherlink.com 1.10,2013-09-06 22:36:00,
2013-09-06 18:50:00,74.2,72.0,29.97,SSW,203,0.0,1.0,94,0.08,,,1.11,0,weatherlink.com 1.10,2013-09-06 22:50:00,
2013-09-06 19:05:00,73.8,72.0,29.96,SSW,202,0.0,1.0,94,0.08,,,1.13,0,weatherlink.com 1.10,2013-09-06 23:05:00,
2013-09-06 19:20:00,74.2,72.0,29.98,North,11,0.0,2.0,94,0.07,,,1.14,0,weatherlink.com 1.10,2013-09-06 23:20:00,
2013-09-06 19:35:00,73.9,72.0,29.98,NNE,23,2.0,6.0,94,0.06,,,1.15,0,weatherlink.com 1.10,2013-09-06 23:35:00,
2013-09-06 19:50:00,74.0,72.0,30.00,North,5,0.0,1.0,94,0.05,,,1.16,0,weatherlink.com 1.10,2013-09-06 23:50:00,
2013-09-06 20:05:00,74.5,73.0,30.00,NW,324,0.0,1.0,95,0.04,,,1.17,0,weatherlink.com 1.10,2013-09-07 00:05:00,
2013-09-06 20:21:00,74.5,73.0,29.99,SW,229,0.0,4.0,95,0.04,,,1.18,0,weatherlink.com 1.10,2013-09-07 00:21:00,
2013-09-06 20:35:00,74.6,73.0,29.98,SW,229,0.0,2.0,95,0.04,,,1.19,0,weatherlink.com 1.10,2013-09-07 00:35:00,
2013-09-06 20:50:00,74.3,73.0,29.98,WSW,243,0.0,3.0,95,0.03,,,1.19,0,weatherlink.com 1.10,2013-09-07 00:50:00,
2013-09-06 21:05:00,74.5,73.0,29.97,North,360,0.0,0.0,95,0.02,,,1.19,0,weatherlink.com 1.10,2013-09-07 01:05:00,
2013-09-06 21:20:00,74.6,73.0,29.96,WSW,244,0.0,1.0,95,0.01,,,1.19,0,weatherlink.com 1.10,2013-09-07 01:20:00,
2013-09-06 21:35:00,74.2,73.0,29.95,WSW,246,0.0,1.0,95,0.00,,,1.19,0,weatherlink.com 1.10,2013-09-07 01:35:00,
2013-09-06 21:50:00,74.3,73.0,29.96,WSW,246,0.0,1.0,95,0.00,,,1.19,0,weatherlink.com 1.10,2013-09-07 01:50:00,
2013-09-06 22:05:00,74.5,73.0,29.96,WSW,248,0.0,1.0,95,0.00,,,1.19,0,weatherlink.com 1.10,2013-09-07 02:05:00,
2013-09-06 22:20:00,74.5,73.0,29.95,WSW,247,0.0,1.0,95,0.00,,,1.19,0,weatherlink.com 1.10,2013-09-07 02:20:00,
2013-09-06 22:35:00,74.5,73.0,29.96,WSW,246,0.0,1.0,95,0.00,,,1.19,0,weatherlink.com 1.10,2013-09-07 02:35:00,
2013-09-06 22:50:00,74.4,73.0,29.97,WSW,247,0.0,0.0,95,0.00,,,1.19,0,weatherlink.com 1.10,2013-09-07 02:50:00,
2013-09-06 23:05:00,74.4,73.0,29.98,WSW,247,0.0,1.0,95,0.00,,,1.19,0,weatherlink.com 1.10,2013-09-07 03:05:00,
2013-09-06 23:20:00,74.4,73.0,29.99,WSW,246,0.0,1.0,95,0.00,,,1.19,0,weatherlink.com 1.10,2013-09-07 03:20:00,
2013-09-06 23:35:00,74.3,73.0,30.00,NNE,14,0.0,2.0,95,0.00,,,1.19,0,weatherlink.com 1.10,2013-09-07 03:35:00,
2013-09-06 23:50:00,74.3,73.0,30.00,NNE,18,0.0,3.0,95,0.00,,,1.19,0,weatherlink.com 1.10,2013-09-07 03:50:00,